sensor_id;sensor_type;location;lat;lon;timestamp;temperature;humidity
68257;DHT22;55069;51.568;4.656;2024-02-14T00:01:34;8.88;98.29
68257;DHT22;55069;51.568;4.656;2024-02-14T00:04:03;8.90;98.32
68257;DHT22;55069;51.568;4.656;2024-02-14T00:06:28;8.88;98.31
68257;DHT22;55069;51.568;4.656;2024-02-14T00:08:54;8.92;98.36
68257;DHT22;55069;51.568;4.656;2024-02-14T00:11:20;8.94;98.19
68257;DHT22;55069;51.568;4.656;2024-02-14T00:13:45;8.96;98.28
68257;DHT22;55069;51.568;4.656;2024-02-14T00:16:11;9.03;98.11
68257;DHT22;55069;51.568;4.656;2024-02-14T00:18:36;8.98;98.12
68257;DHT22;55069;51.568;4.656;2024-02-14T00:21:02;9.01;98.21
68257;DHT22;55069;51.568;4.656;2024-02-14T00:23:27;9.00;98.20
68257;DHT22;55069;51.568;4.656;2024-02-14T00:25:53;8.96;98.35
68257;DHT22;55069;51.568;4.656;2024-02-14T00:28:18;8.98;98.30
68257;DHT22;55069;51.568;4.656;2024-02-14T00:30:44;8.97;98.34
68257;DHT22;55069;51.568;4.656;2024-02-14T00:33:09;9.05;98.28
68257;DHT22;55069;51.568;4.656;2024-02-14T00:35:35;9.01;98.33
68257;DHT22;55069;51.568;4.656;2024-02-14T00:38:01;9.03;98.30
68257;DHT22;55069;51.568;4.656;2024-02-14T00:40:26;9.10;98.24
68257;DHT22;55069;51.568;4.656;2024-02-14T00:42:52;9.10;98.20
68257;DHT22;55069;51.568;4.656;2024-02-14T00:45:17;9.10;98.24
68257;DHT22;55069;51.568;4.656;2024-02-14T00:47:43;9.08;98.40
68257;DHT22;55069;51.568;4.656;2024-02-14T00:50:09;9.05;98.48
68257;DHT22;55069;51.568;4.656;2024-02-14T00:52:34;9.14;98.49
68257;DHT22;55069;51.568;4.656;2024-02-14T00:55:00;9.08;98.50
68257;DHT22;55069;51.568;4.656;2024-02-14T00:57:28;9.07;98.51
68257;DHT22;55069;51.568;4.656;2024-02-14T00:59:54;9.10;98.46
68257;DHT22;55069;51.568;4.656;2024-02-14T01:02:21;9.11;98.32
68257;DHT22;55069;51.568;4.656;2024-02-14T01:04:47;9.14;98.36
68257;DHT22;55069;51.568;4.656;2024-02-14T01:07:13;9.15;98.31
68257;DHT22;55069;51.568;4.656;2024-02-14T01:09:38;9.21;98.17
68257;DHT22;55069;51.568;4.656;2024-02-14T01:12:04;9.21;98.12
68257;DHT22;55069;51.568;4.656;2024-02-14T01:14:31;9.21;98.07
68257;DHT22;55069;51.568;4.656;2024-02-14T01:16:56;9.25;97.95
68257;DHT22;55069;51.568;4.656;2024-02-14T01:19:22;9.27;97.97
68257;DHT22;55069;51.568;4.656;2024-02-14T01:21:49;9.31;97.91
68257;DHT22;55069;51.568;4.656;2024-02-14T01:24:15;9.27;97.84
68257;DHT22;55069;51.568;4.656;2024-02-14T01:26:41;9.32;97.92
68257;DHT22;55069;51.568;4.656;2024-02-14T01:29:07;9.35;97.99
68257;DHT22;55069;51.568;4.656;2024-02-14T01:31:33;9.32;97.96
68257;DHT22;55069;51.568;4.656;2024-02-14T01:33:59;9.35;97.99
68257;DHT22;55069;51.568;4.656;2024-02-14T01:36:30;9.34;98.10
68257;DHT22;55069;51.568;4.656;2024-02-14T01:38:55;9.34;98.28
68257;DHT22;55069;51.568;4.656;2024-02-14T01:41:21;9.36;98.26
68257;DHT22;55069;51.568;4.656;2024-02-14T01:43:49;9.32;98.50
68257;DHT22;55069;51.568;4.656;2024-02-14T01:46:15;9.36;98.57
68257;DHT22;55069;51.568;4.656;2024-02-14T01:48:41;9.32;98.64
68257;DHT22;55069;51.568;4.656;2024-02-14T01:51:09;9.31;98.79
68257;DHT22;55069;51.568;4.656;2024-02-14T01:53:36;9.38;98.76
68257;DHT22;55069;51.568;4.656;2024-02-14T01:56:03;9.35;98.76
68257;DHT22;55069;51.568;4.656;2024-02-14T01:58:30;9.35;98.88
68257;DHT22;55069;51.568;4.656;2024-02-14T02:00:56;9.32;99.07
68257;DHT22;55069;51.568;4.656;2024-02-14T02:03:24;9.32;98.93
68257;DHT22;55069;51.568;4.656;2024-02-14T02:05:50;9.34;99.06
68257;DHT22;55069;51.568;4.656;2024-02-14T02:08:15;9.40;99.06
68257;DHT22;55069;51.568;4.656;2024-02-14T02:10:41;9.35;99.03
68257;DHT22;55069;51.568;4.656;2024-02-14T02:13:08;9.40;99.10
68257;DHT22;55069;51.568;4.656;2024-02-14T02:15:34;9.36;99.07
68257;DHT22;55069;51.568;4.656;2024-02-14T02:18:00;9.36;99.05
68257;DHT22;55069;51.568;4.656;2024-02-14T02:20:26;9.39;99.17
68257;DHT22;55069;51.568;4.656;2024-02-14T02:22:53;9.42;99.08
68257;DHT22;55069;51.568;4.656;2024-02-14T02:25:18;9.43;99.08
68257;DHT22;55069;51.568;4.656;2024-02-14T02:27:48;9.36;99.16
68257;DHT22;55069;51.568;4.656;2024-02-14T02:30:14;9.43;99.10
68257;DHT22;55069;51.568;4.656;2024-02-14T02:32:39;9.39;99.15
68257;DHT22;55069;51.568;4.656;2024-02-14T02:35:06;9.40;99.12
68257;DHT22;55069;51.568;4.656;2024-02-14T02:37:32;9.40;99.02
68257;DHT22;55069;51.568;4.656;2024-02-14T02:39:58;9.46;99.12
68257;DHT22;55069;51.568;4.656;2024-02-14T02:42:24;9.49;99.03
68257;DHT22;55069;51.568;4.656;2024-02-14T02:44:50;9.50;99.09
68257;DHT22;55069;51.568;4.656;2024-02-14T02:47:16;9.55;99.06
68257;DHT22;55069;51.568;4.656;2024-02-14T02:49:46;9.55;99.11
68257;DHT22;55069;51.568;4.656;2024-02-14T02:52:12;9.53;99.11
68257;DHT22;55069;51.568;4.656;2024-02-14T02:54:38;9.55;99.16
68257;DHT22;55069;51.568;4.656;2024-02-14T02:57:12;9.53;99.13
68257;DHT22;55069;51.568;4.656;2024-02-14T02:59:37;9.60;99.24
68257;DHT22;55069;51.568;4.656;2024-02-14T03:02:04;9.57;99.11
68257;DHT22;55069;51.568;4.656;2024-02-14T03:04:35;9.65;99.13
68257;DHT22;55069;51.568;4.656;2024-02-14T03:07:00;9.67;99.04
68257;DHT22;55069;51.568;4.656;2024-02-14T03:09:33;9.69;98.92
68257;DHT22;55069;51.568;4.656;2024-02-14T03:11:58;9.70;98.87
68257;DHT22;55069;51.568;4.656;2024-02-14T03:14:24;9.73;98.82
68257;DHT22;55069;51.568;4.656;2024-02-14T03:16:49;9.73;98.76
68257;DHT22;55069;51.568;4.656;2024-02-14T03:19:16;9.72;98.76
68257;DHT22;55069;51.568;4.656;2024-02-14T03:21:41;9.73;98.68
68257;DHT22;55069;51.568;4.656;2024-02-14T03:24:08;9.72;98.70
68257;DHT22;55069;51.568;4.656;2024-02-14T03:26:35;9.76;98.66
68257;DHT22;55069;51.568;4.656;2024-02-14T03:29:02;9.80;98.65
68257;DHT22;55069;51.568;4.656;2024-02-14T03:31:27;9.82;98.53
68257;DHT22;55069;51.568;4.656;2024-02-14T03:33:53;9.91;98.49
68257;DHT22;55069;51.568;4.656;2024-02-14T03:36:19;9.87;98.21
68257;DHT22;55069;51.568;4.656;2024-02-14T03:38:45;9.91;98.41
68257;DHT22;55069;51.568;4.656;2024-02-14T03:41:12;9.91;98.28
68257;DHT22;55069;51.568;4.656;2024-02-14T03:43:38;9.91;98.26
68257;DHT22;55069;51.568;4.656;2024-02-14T03:46:04;9.91;98.25
68257;DHT22;55069;51.568;4.656;2024-02-14T03:48:31;9.96;98.14
68257;DHT22;55069;51.568;4.656;2024-02-14T03:50:57;10.00;98.09
68257;DHT22;55069;51.568;4.656;2024-02-14T03:53:23;9.97;98.01
68257;DHT22;55069;51.568;4.656;2024-02-14T03:55:48;10.01;97.92
68257;DHT22;55069;51.568;4.656;2024-02-14T03:58:15;9.98;98.03
68257;DHT22;55069;51.568;4.656;2024-02-14T04:00:42;9.98;98.00
68257;DHT22;55069;51.568;4.656;2024-02-14T04:03:12;9.94;98.12
68257;DHT22;55069;51.568;4.656;2024-02-14T04:05:38;9.94;98.14
68257;DHT22;55069;51.568;4.656;2024-02-14T04:08:03;10.00;98.19
68257;DHT22;55069;51.568;4.656;2024-02-14T04:10:29;10.01;98.25
68257;DHT22;55069;51.568;4.656;2024-02-14T04:12:54;9.98;98.21
68257;DHT22;55069;51.568;4.656;2024-02-14T04:15:20;9.98;98.39
68257;DHT22;55069;51.568;4.656;2024-02-14T04:17:45;9.96;98.49
68257;DHT22;55069;51.568;4.656;2024-02-14T04:20:11;9.98;98.48
68257;DHT22;55069;51.568;4.656;2024-02-14T04:22:37;9.94;98.62
68257;DHT22;55069;51.568;4.656;2024-02-14T04:25:02;9.93;98.80
68257;DHT22;55069;51.568;4.656;2024-02-14T04:27:28;9.93;98.75
68257;DHT22;55069;51.568;4.656;2024-02-14T04:29:53;10.00;98.87
68257;DHT22;55069;51.568;4.656;2024-02-14T04:32:20;9.98;98.85
68257;DHT22;55069;51.568;4.656;2024-02-14T04:34:45;10.01;98.77
68257;DHT22;55069;51.568;4.656;2024-02-14T04:37:11;10.03;98.99
68257;DHT22;55069;51.568;4.656;2024-02-14T04:39:39;9.97;99.00
68257;DHT22;55069;51.568;4.656;2024-02-14T04:42:05;9.96;99.13
68257;DHT22;55069;51.568;4.656;2024-02-14T04:44:31;9.98;99.07
68257;DHT22;55069;51.568;4.656;2024-02-14T04:46:57;9.98;99.25
68257;DHT22;55069;51.568;4.656;2024-02-14T04:49:26;9.94;99.22
68257;DHT22;55069;51.568;4.656;2024-02-14T04:51:52;9.96;99.26
68257;DHT22;55069;51.568;4.656;2024-02-14T04:54:18;10.00;99.33
68257;DHT22;55069;51.568;4.656;2024-02-14T04:56:44;9.94;99.34
68257;DHT22;55069;51.568;4.656;2024-02-14T04:59:11;9.96;99.44
68257;DHT22;55069;51.568;4.656;2024-02-14T05:01:36;9.89;99.63
68257;DHT22;55069;51.568;4.656;2024-02-14T05:04:02;9.90;99.63
68257;DHT22;55069;51.568;4.656;2024-02-14T05:06:28;9.93;99.77
68257;DHT22;55069;51.568;4.656;2024-02-14T05:08:54;9.94;99.73
68257;DHT22;55069;51.568;4.656;2024-02-14T05:11:19;9.86;99.88
68257;DHT22;55069;51.568;4.656;2024-02-14T05:13:45;9.86;99.95
68257;DHT22;55069;51.568;4.656;2024-02-14T05:16:12;9.87;99.99
68257;DHT22;55069;51.568;4.656;2024-02-14T05:18:38;9.86;99.99
68257;DHT22;55069;51.568;4.656;2024-02-14T05:21:07;9.86;99.99
68257;DHT22;55069;51.568;4.656;2024-02-14T05:23:34;9.87;99.91
68257;DHT22;55069;51.568;4.656;2024-02-14T05:26:00;9.87;99.99
68257;DHT22;55069;51.568;4.656;2024-02-14T05:28:28;9.87;99.99
68257;DHT22;55069;51.568;4.656;2024-02-14T05:30:53;9.83;99.96
68257;DHT22;55069;51.568;4.656;2024-02-14T05:33:19;9.89;99.98
68257;DHT22;55069;51.568;4.656;2024-02-14T05:35:50;9.87;99.99
68257;DHT22;55069;51.568;4.656;2024-02-14T05:38:16;9.87;99.99
68257;DHT22;55069;51.568;4.656;2024-02-14T05:40:47;9.89;99.99
68257;DHT22;55069;51.568;4.656;2024-02-14T05:43:13;9.91;99.99
68257;DHT22;55069;51.568;4.656;2024-02-14T05:45:39;9.91;99.99
68257;DHT22;55069;51.568;4.656;2024-02-14T05:48:05;9.93;99.99
68257;DHT22;55069;51.568;4.656;2024-02-14T05:50:31;9.96;99.99
68257;DHT22;55069;51.568;4.656;2024-02-14T05:52:57;9.94;99.99
68257;DHT22;55069;51.568;4.656;2024-02-14T05:55:23;9.91;99.99
68257;DHT22;55069;51.568;4.656;2024-02-14T05:57:53;9.97;99.99
68257;DHT22;55069;51.568;4.656;2024-02-14T06:00:21;9.96;99.99
68257;DHT22;55069;51.568;4.656;2024-02-14T06:02:47;9.97;99.99
68257;DHT22;55069;51.568;4.656;2024-02-14T06:05:13;9.98;99.99
68257;DHT22;55069;51.568;4.656;2024-02-14T06:07:40;10.00;99.99
68257;DHT22;55069;51.568;4.656;2024-02-14T06:10:11;9.98;99.99
68257;DHT22;55069;51.568;4.656;2024-02-14T06:12:37;10.01;99.99
68257;DHT22;55069;51.568;4.656;2024-02-14T06:15:03;9.97;99.99
68257;DHT22;55069;51.568;4.656;2024-02-14T06:17:28;10.01;99.99
68257;DHT22;55069;51.568;4.656;2024-02-14T06:19:54;10.03;99.99
68257;DHT22;55069;51.568;4.656;2024-02-14T06:22:20;10.05;99.99
68257;DHT22;55069;51.568;4.656;2024-02-14T06:24:48;10.05;99.99
68257;DHT22;55069;51.568;4.656;2024-02-14T06:27:14;10.08;99.99
68257;DHT22;55069;51.568;4.656;2024-02-14T06:29:43;10.07;99.99
68257;DHT22;55069;51.568;4.656;2024-02-14T06:32:08;10.08;99.99
68257;DHT22;55069;51.568;4.656;2024-02-14T06:34:34;10.13;99.99
68257;DHT22;55069;51.568;4.656;2024-02-14T06:36:59;10.11;99.99
68257;DHT22;55069;51.568;4.656;2024-02-14T06:39:25;10.10;99.99
68257;DHT22;55069;51.568;4.656;2024-02-14T06:41:50;10.14;99.99
68257;DHT22;55069;51.568;4.656;2024-02-14T06:44:16;10.10;99.99
68257;DHT22;55069;51.568;4.656;2024-02-14T06:46:41;10.17;99.99
68257;DHT22;55069;51.568;4.656;2024-02-14T06:49:08;10.07;99.99
68257;DHT22;55069;51.568;4.656;2024-02-14T06:51:34;10.08;99.99
68257;DHT22;55069;51.568;4.656;2024-02-14T06:53:59;10.10;99.99
68257;DHT22;55069;51.568;4.656;2024-02-14T06:56:25;10.11;99.99
68257;DHT22;55069;51.568;4.656;2024-02-14T06:58:50;10.11;99.99
68257;DHT22;55069;51.568;4.656;2024-02-14T07:01:19;10.13;99.99
68257;DHT22;55069;51.568;4.656;2024-02-14T07:03:50;10.15;99.99
68257;DHT22;55069;51.568;4.656;2024-02-14T07:06:16;10.15;99.99
68257;DHT22;55069;51.568;4.656;2024-02-14T07:08:42;10.14;99.99
68257;DHT22;55069;51.568;4.656;2024-02-14T07:11:08;10.14;99.99
68257;DHT22;55069;51.568;4.656;2024-02-14T07:13:33;10.15;99.99
68257;DHT22;55069;51.568;4.656;2024-02-14T07:16:00;10.21;99.95
68257;DHT22;55069;51.568;4.656;2024-02-14T07:18:25;10.22;99.93
68257;DHT22;55069;51.568;4.656;2024-02-14T07:20:51;10.27;99.85
68257;DHT22;55069;51.568;4.656;2024-02-14T07:23:18;10.21;99.84
68257;DHT22;55069;51.568;4.656;2024-02-14T07:25:44;10.24;99.87
68257;DHT22;55069;51.568;4.656;2024-02-14T07:28:10;10.24;99.78
68257;DHT22;55069;51.568;4.656;2024-02-14T07:30:36;10.32;99.73
68257;DHT22;55069;51.568;4.656;2024-02-14T07:33:02;10.28;99.64
68257;DHT22;55069;51.568;4.656;2024-02-14T07:35:27;10.30;99.79
68257;DHT22;55069;51.568;4.656;2024-02-14T07:37:54;10.32;99.66
68257;DHT22;55069;51.568;4.656;2024-02-14T07:40:21;10.40;99.51
68257;DHT22;55069;51.568;4.656;2024-02-14T07:42:46;10.35;99.50
68257;DHT22;55069;51.568;4.656;2024-02-14T07:45:12;10.40;99.45
68257;DHT22;55069;51.568;4.656;2024-02-14T07:47:38;10.42;99.44
68257;DHT22;55069;51.568;4.656;2024-02-14T07:50:04;10.42;99.48
68257;DHT22;55069;51.568;4.656;2024-02-14T07:52:30;10.45;99.42
68257;DHT22;55069;51.568;4.656;2024-02-14T07:54:56;10.46;99.41
68257;DHT22;55069;51.568;4.656;2024-02-14T07:57:22;10.53;99.31
68257;DHT22;55069;51.568;4.656;2024-02-14T07:59:50;10.52;99.22
68257;DHT22;55069;51.568;4.656;2024-02-14T08:02:15;10.58;99.25
68257;DHT22;55069;51.568;4.656;2024-02-14T08:04:41;10.55;99.33
68257;DHT22;55069;51.568;4.656;2024-02-14T08:07:06;10.55;99.33
68257;DHT22;55069;51.568;4.656;2024-02-14T08:09:32;10.55;99.25
68257;DHT22;55069;51.568;4.656;2024-02-14T08:11:57;10.58;99.32
68257;DHT22;55069;51.568;4.656;2024-02-14T08:14:23;10.62;99.26
68257;DHT22;55069;51.568;4.656;2024-02-14T08:16:48;10.62;99.19
68257;DHT22;55069;51.568;4.656;2024-02-14T08:19:14;10.61;99.05
68257;DHT22;55069;51.568;4.656;2024-02-14T08:21:41;10.69;99.04
68257;DHT22;55069;51.568;4.656;2024-02-14T08:24:07;10.66;98.99
68257;DHT22;55069;51.568;4.656;2024-02-14T08:26:32;10.68;98.93
68257;DHT22;55069;51.568;4.656;2024-02-14T08:28:58;10.71;98.97
68257;DHT22;55069;51.568;4.656;2024-02-14T08:31:23;10.76;98.89
68257;DHT22;55069;51.568;4.656;2024-02-14T08:33:49;10.77;98.79
68257;DHT22;55069;51.568;4.656;2024-02-14T08:36:14;10.79;98.79
68257;DHT22;55069;51.568;4.656;2024-02-14T08:38:42;10.84;98.62
68257;DHT22;55069;51.568;4.656;2024-02-14T08:41:08;10.86;98.64
68257;DHT22;55069;51.568;4.656;2024-02-14T08:43:33;10.92;98.56
68257;DHT22;55069;51.568;4.656;2024-02-14T08:45:59;10.92;98.51
68257;DHT22;55069;51.568;4.656;2024-02-14T08:48:24;10.84;98.58
68257;DHT22;55069;51.568;4.656;2024-02-14T08:50:52;10.90;98.57
68257;DHT22;55069;51.568;4.656;2024-02-14T08:53:18;10.92;98.52
68257;DHT22;55069;51.568;4.656;2024-02-14T08:55:44;10.93;98.59
68257;DHT22;55069;51.568;4.656;2024-02-14T08:58:09;10.95;98.57
68257;DHT22;55069;51.568;4.656;2024-02-14T09:00:41;11.01;98.62
68257;DHT22;55069;51.568;4.656;2024-02-14T09:03:07;11.09;98.52
68257;DHT22;55069;51.568;4.656;2024-02-14T09:05:33;11.09;98.48
68257;DHT22;55069;51.568;4.656;2024-02-14T09:07:58;11.16;98.40
68257;DHT22;55069;51.568;4.656;2024-02-14T09:10:25;11.16;98.25
68257;DHT22;55069;51.568;4.656;2024-02-14T09:12:51;11.20;98.33
68257;DHT22;55069;51.568;4.656;2024-02-14T09:15:16;11.27;98.19
68257;DHT22;55069;51.568;4.656;2024-02-14T09:17:42;11.32;98.16
68257;DHT22;55069;51.568;4.656;2024-02-14T09:20:09;11.34;98.23
68257;DHT22;55069;51.568;4.656;2024-02-14T09:22:35;11.42;98.32
68257;DHT22;55069;51.568;4.656;2024-02-14T09:25:01;11.37;98.41
68257;DHT22;55069;51.568;4.656;2024-02-14T09:27:30;11.35;98.45
68257;DHT22;55069;51.568;4.656;2024-02-14T09:29:55;11.32;98.53
68257;DHT22;55069;51.568;4.656;2024-02-14T09:32:21;11.35;98.51
68257;DHT22;55069;51.568;4.656;2024-02-14T09:34:47;11.35;98.48
68257;DHT22;55069;51.568;4.656;2024-02-14T09:37:12;11.38;98.26
68257;DHT22;55069;51.568;4.656;2024-02-14T09:39:38;11.45;98.38
68257;DHT22;55069;51.568;4.656;2024-02-14T09:42:08;11.48;98.26
68257;DHT22;55069;51.568;4.656;2024-02-14T09:44:35;11.59;98.14
68257;DHT22;55069;51.568;4.656;2024-02-14T09:47:02;11.57;97.95
68257;DHT22;55069;51.568;4.656;2024-02-14T09:49:30;11.54;98.07
68257;DHT22;55069;51.568;4.656;2024-02-14T09:51:57;11.58;97.98
68257;DHT22;55069;51.568;4.656;2024-02-14T09:54:23;11.55;98.01
68257;DHT22;55069;51.568;4.656;2024-02-14T09:56:52;11.58;98.02
68257;DHT22;55069;51.568;4.656;2024-02-14T09:59:22;11.58;98.06
68257;DHT22;55069;51.568;4.656;2024-02-14T10:01:48;11.59;98.09
68257;DHT22;55069;51.568;4.656;2024-02-14T10:04:16;11.58;98.03
68257;DHT22;55069;51.568;4.656;2024-02-14T10:06:43;11.64;98.19
68257;DHT22;55069;51.568;4.656;2024-02-14T10:09:08;11.61;98.31
68257;DHT22;55069;51.568;4.656;2024-02-14T10:11:35;11.68;98.32
68257;DHT22;55069;51.568;4.656;2024-02-14T10:14:02;11.65;98.25
68257;DHT22;55069;51.568;4.656;2024-02-14T10:16:29;11.68;98.39
68257;DHT22;55069;51.568;4.656;2024-02-14T10:18:55;11.74;98.36
68257;DHT22;55069;51.568;4.656;2024-02-14T10:21:21;11.72;98.41
68257;DHT22;55069;51.568;4.656;2024-02-14T10:23:47;11.68;98.55
68257;DHT22;55069;51.568;4.656;2024-02-14T10:26:17;11.65;98.64
68257;DHT22;55069;51.568;4.656;2024-02-14T10:28:43;11.61;98.86
68257;DHT22;55069;51.568;4.656;2024-02-14T10:31:24;11.69;98.93
68257;DHT22;55069;51.568;4.656;2024-02-14T10:33:52;11.68;99.09
68257;DHT22;55069;51.568;4.656;2024-02-14T10:36:18;11.74;99.03
68257;DHT22;55069;51.568;4.656;2024-02-14T10:38:46;11.72;99.04
68257;DHT22;55069;51.568;4.656;2024-02-14T10:41:16;11.78;98.95
68257;DHT22;55069;51.568;4.656;2024-02-14T10:43:41;11.75;98.98
68257;DHT22;55069;51.568;4.656;2024-02-14T10:46:12;11.82;98.87
68257;DHT22;55069;51.568;4.656;2024-02-14T10:48:38;11.81;98.80
68257;DHT22;55069;51.568;4.656;2024-02-14T10:51:08;11.82;98.73
68257;DHT22;55069;51.568;4.656;2024-02-14T10:53:36;11.78;98.70
68257;DHT22;55069;51.568;4.656;2024-02-14T10:56:05;11.71;98.82
68257;DHT22;55069;51.568;4.656;2024-02-14T10:58:32;11.68;98.70
68257;DHT22;55069;51.568;4.656;2024-02-14T11:00:58;11.69;98.88
68257;DHT22;55069;51.568;4.656;2024-02-14T11:03:25;11.69;99.08
68257;DHT22;55069;51.568;4.656;2024-02-14T11:05:53;11.74;99.08
68257;DHT22;55069;51.568;4.656;2024-02-14T11:08:19;11.78;99.12
68257;DHT22;55069;51.568;4.656;2024-02-14T11:10:54;11.78;99.05
68257;DHT22;55069;51.568;4.656;2024-02-14T11:13:20;11.76;99.07
68257;DHT22;55069;51.568;4.656;2024-02-14T11:15:47;11.72;99.21
68257;DHT22;55069;51.568;4.656;2024-02-14T11:18:12;11.72;99.27
68257;DHT22;55069;51.568;4.656;2024-02-14T11:20:38;11.72;99.30
68257;DHT22;55069;51.568;4.656;2024-02-14T11:23:07;11.74;99.34
68257;DHT22;55069;51.568;4.656;2024-02-14T11:25:37;11.72;99.39
68257;DHT22;55069;51.568;4.656;2024-02-14T11:28:25;11.75;99.33
68257;DHT22;55069;51.568;4.656;2024-02-14T11:30:51;11.74;99.31
68257;DHT22;55069;51.568;4.656;2024-02-14T11:33:21;11.78;99.39
68257;DHT22;55069;51.568;4.656;2024-02-14T11:35:48;11.82;99.34
68257;DHT22;55069;51.568;4.656;2024-02-14T11:38:17;11.82;99.36
68257;DHT22;55069;51.568;4.656;2024-02-14T11:40:43;11.82;99.40
68257;DHT22;55069;51.568;4.656;2024-02-14T11:43:17;11.79;99.39
68257;DHT22;55069;51.568;4.656;2024-02-14T11:45:43;11.76;99.51
68257;DHT22;55069;51.568;4.656;2024-02-14T11:48:14;11.76;99.44
68257;DHT22;55069;51.568;4.656;2024-02-14T11:50:44;11.78;99.46
68257;DHT22;55069;51.568;4.656;2024-02-14T11:53:14;11.79;99.53
68257;DHT22;55069;51.568;4.656;2024-02-14T11:55:45;11.82;99.59
68257;DHT22;55069;51.568;4.656;2024-02-14T11:58:13;11.86;99.58
68257;DHT22;55069;51.568;4.656;2024-02-14T12:00:40;11.86;99.42
68257;DHT22;55069;51.568;4.656;2024-02-14T12:03:12;11.90;99.52
68257;DHT22;55069;51.568;4.656;2024-02-14T12:05:38;11.90;99.45
68257;DHT22;55069;51.568;4.656;2024-02-14T12:08:06;11.95;99.41
68257;DHT22;55069;51.568;4.656;2024-02-14T12:10:33;11.95;99.44
68257;DHT22;55069;51.568;4.656;2024-02-14T12:13:11;11.99;99.32
68257;DHT22;55069;51.568;4.656;2024-02-14T12:15:41;12.02;99.36
68257;DHT22;55069;51.568;4.656;2024-02-14T12:18:11;12.03;99.28
68257;DHT22;55069;51.568;4.656;2024-02-14T12:20:37;12.09;99.21
68257;DHT22;55069;51.568;4.656;2024-02-14T12:23:04;12.17;98.94
68257;DHT22;55069;51.568;4.656;2024-02-14T12:25:30;12.17;99.06
68257;DHT22;55069;51.568;4.656;2024-02-14T12:27:57;12.17;99.04
68257;DHT22;55069;51.568;4.656;2024-02-14T12:33:15;12.32;98.83
68257;DHT22;55069;51.568;4.656;2024-02-14T12:35:42;12.33;98.82
68257;DHT22;55069;51.568;4.656;2024-02-14T12:38:09;12.36;98.78
68257;DHT22;55069;51.568;4.656;2024-02-14T12:40:35;12.38;98.77
68257;DHT22;55069;51.568;4.656;2024-02-14T12:43:01;12.44;98.57
68257;DHT22;55069;51.568;4.656;2024-02-14T12:45:27;12.45;98.50
68257;DHT22;55069;51.568;4.656;2024-02-14T12:47:52;12.47;98.39
68257;DHT22;55069;51.568;4.656;2024-02-14T12:50:18;12.51;98.28
68257;DHT22;55069;51.568;4.656;2024-02-14T12:52:46;12.60;98.30
68257;DHT22;55069;51.568;4.656;2024-02-14T12:55:12;12.58;98.26
68257;DHT22;55069;51.568;4.656;2024-02-14T12:57:38;12.58;98.01
68257;DHT22;55069;51.568;4.656;2024-02-14T13:00:04;12.61;98.20
68257;DHT22;55069;51.568;4.656;2024-02-14T13:02:34;12.58;98.11
68257;DHT22;55069;51.568;4.656;2024-02-14T13:05:00;12.58;98.18
68257;DHT22;55069;51.568;4.656;2024-02-14T13:07:27;12.60;98.29
68257;DHT22;55069;51.568;4.656;2024-02-14T13:09:53;12.57;98.43
68257;DHT22;55069;51.568;4.656;2024-02-14T13:12:20;12.55;98.41
68257;DHT22;55069;51.568;4.656;2024-02-14T13:14:46;12.54;98.39
68257;DHT22;55069;51.568;4.656;2024-02-14T13:17:12;12.51;98.69
68257;DHT22;55069;51.568;4.656;2024-02-14T13:19:37;12.45;98.72
68257;DHT22;55069;51.568;4.656;2024-02-14T13:22:04;12.45;98.78
68257;DHT22;55069;51.568;4.656;2024-02-14T13:24:30;12.45;98.78
68257;DHT22;55069;51.568;4.656;2024-02-14T13:26:55;12.45;98.80
68257;DHT22;55069;51.568;4.656;2024-02-14T13:29:23;12.45;98.69
68257;DHT22;55069;51.568;4.656;2024-02-14T13:31:50;12.41;98.79
68257;DHT22;55069;51.568;4.656;2024-02-14T13:34:16;12.43;98.86
68257;DHT22;55069;51.568;4.656;2024-02-14T13:36:45;12.41;98.90
68257;DHT22;55069;51.568;4.656;2024-02-14T13:39:10;12.38;98.93
68257;DHT22;55069;51.568;4.656;2024-02-14T13:41:37;12.43;98.95
68257;DHT22;55069;51.568;4.656;2024-02-14T13:44:06;12.41;99.02
68257;DHT22;55069;51.568;4.656;2024-02-14T13:46:31;12.41;98.95
68257;DHT22;55069;51.568;4.656;2024-02-14T13:48:57;12.38;99.18
68257;DHT22;55069;51.568;4.656;2024-02-14T13:51:23;12.41;99.28
68257;DHT22;55069;51.568;4.656;2024-02-14T13:53:49;12.36;99.29
68257;DHT22;55069;51.568;4.656;2024-02-14T13:56:14;12.47;99.32
68257;DHT22;55069;51.568;4.656;2024-02-14T13:58:41;12.47;99.48
68257;DHT22;55069;51.568;4.656;2024-02-14T14:01:07;12.48;99.58
68257;DHT22;55069;51.568;4.656;2024-02-14T14:03:33;12.48;99.57
68257;DHT22;55069;51.568;4.656;2024-02-14T14:06:02;12.48;99.47
68257;DHT22;55069;51.568;4.656;2024-02-14T14:08:31;12.53;99.47
68257;DHT22;55069;51.568;4.656;2024-02-14T14:10:56;12.51;99.49
68257;DHT22;55069;51.568;4.656;2024-02-14T14:13:22;12.55;99.48
68257;DHT22;55069;51.568;4.656;2024-02-14T14:15:47;12.55;99.61
68257;DHT22;55069;51.568;4.656;2024-02-14T14:18:13;12.54;99.55
68257;DHT22;55069;51.568;4.656;2024-02-14T14:20:38;12.54;99.63
68257;DHT22;55069;51.568;4.656;2024-02-14T14:23:04;12.57;99.49
68257;DHT22;55069;51.568;4.656;2024-02-14T14:25:30;12.48;99.66
68257;DHT22;55069;51.568;4.656;2024-02-14T14:27:58;12.55;99.55
68257;DHT22;55069;51.568;4.656;2024-02-14T14:30:25;12.54;99.58
68257;DHT22;55069;51.568;4.656;2024-02-14T14:32:51;12.57;99.54
68257;DHT22;55069;51.568;4.656;2024-02-14T14:35:16;12.55;99.61
68257;DHT22;55069;51.568;4.656;2024-02-14T14:37:42;12.54;99.58
68257;DHT22;55069;51.568;4.656;2024-02-14T14:40:07;12.53;99.54
68257;DHT22;55069;51.568;4.656;2024-02-14T14:42:34;12.55;99.63
68257;DHT22;55069;51.568;4.656;2024-02-14T14:45:00;12.58;99.55
68257;DHT22;55069;51.568;4.656;2024-02-14T14:47:25;12.64;99.47
68257;DHT22;55069;51.568;4.656;2024-02-14T14:49:51;12.62;99.60
68257;DHT22;55069;51.568;4.656;2024-02-14T14:52:16;12.61;99.54
68257;DHT22;55069;51.568;4.656;2024-02-14T14:54:42;12.64;99.54
68257;DHT22;55069;51.568;4.656;2024-02-14T14:57:07;12.62;99.54
68257;DHT22;55069;51.568;4.656;2024-02-14T14:59:40;12.64;99.54
68257;DHT22;55069;51.568;4.656;2024-02-14T15:02:06;12.64;99.63
68257;DHT22;55069;51.568;4.656;2024-02-14T15:04:32;12.62;99.63
68257;DHT22;55069;51.568;4.656;2024-02-14T15:07:00;12.67;99.60
68257;DHT22;55069;51.568;4.656;2024-02-14T15:09:25;12.61;99.59
68257;DHT22;55069;51.568;4.656;2024-02-14T15:11:51;12.64;99.50
68257;DHT22;55069;51.568;4.656;2024-02-14T15:14:18;12.67;99.61
68257;DHT22;55069;51.568;4.656;2024-02-14T15:16:43;12.68;99.57
68257;DHT22;55069;51.568;4.656;2024-02-14T15:19:09;12.68;99.33
68257;DHT22;55069;51.568;4.656;2024-02-14T15:21:35;12.69;99.31
68257;DHT22;55069;51.568;4.656;2024-02-14T15:24:00;12.72;99.27
68257;DHT22;55069;51.568;4.656;2024-02-14T15:26:26;12.71;99.33
68257;DHT22;55069;51.568;4.656;2024-02-14T15:28:51;12.71;99.34
68257;DHT22;55069;51.568;4.656;2024-02-14T15:31:37;12.74;99.26
68257;DHT22;55069;51.568;4.656;2024-02-14T15:34:21;12.72;99.17
68257;DHT22;55069;51.568;4.656;2024-02-14T15:36:46;12.72;99.11